Language selection

My Weather Profile Weather Topics  | 

Hudson - Hudson Bay: Past 24 Hour Conditions

 

Kuujjuarapik Airport

09:00 PM EST 21 January 2022
Disclaimer

This table is a summary of hourly weather conditions for the past 24 hours.
Please note that these observations might not always be representative of weather conditions over their associated marine area.

Date / Time
(EST)
Wind(knots) Conditions Visibility(km) Pressure(kPa) Air tempC) Relative humidity(%) Dew pointC) Wind Chill
21 January 2022
21:00 S 24 gust 34 Light Snow 2 100.2 -9 82 -11 -20
20:00 S 18 gust 38 Light Snow 3 100.4 -10 80 -12 -19
19:00 S 21 gust 35 Blowing Snow 3 100.4 -11 80 -14 -22
18:00 S 23 gust 36 Blowing Snow 2 100.4 -12 74 -16 -24
17:00 S 20 gust 33 Blowing Snow 4 100.5 -13 68 -17 -24
16:00 S 20 gust 34 Light Snow 3 100.6 -13 67 -18 -25
15:00 SSE 19 gust 33 Light Snow 2 100.8 -15 70 -19 -26
14:00 S 18 gust 27 Light Snow 5 101.0 -16 69 -20 -27
13:00 SSE 13 gust 25 Light Snow 5 101.1 -17 72 -21 -28
12:00 SSE 13 gust 23 Sunny 16 101.2 -18 73 -22 -29
11:00 S 14 gust 28 Haze 4 101.4 -19 76 -22 -31
10:00 SSE 16 gust 28 Light Snow 4 101.4 -20 78 -23 -33
9:00 S 15 gust 23 Light Snow 4 101.5 -21 80 -23 -33
8:00 S 12 gust 18 Clear 13 101.6 -21 81 -23 -32
7:00 S 10 gust 16 Clear 16 101.7 -22 80 -25 -33
6:00 S 13 gust 20 Clear 16 101.8 -23 81 -25 -35
5:00 S 9 gust 17 Clear 16 101.8 -23 80 -26 -34
4:00 S 11 gust 16 Clear 16 101.8 -23 79 -26 -35
3:00 S 10 gust 15 Clear 16 101.8 -23 79 -26 -34
2:00 S 11 Clear 13 101.8 -23 79 -26 -35
1:00 SSW 9 gust 17 Mainly Clear 15 101.8 -23 79 -25 -33
0:00 SSW 10 gust 16 Cloudy 13 101.8 -22 79 -25 -33
20 January 2022
23:00 SW 8 gust 17 Haze 5 101.8 -22 77 -25 -32
22:00 SW 13 gust 20 Light Snow 3 101.8 -22 77 -25 -34
21:00 SW 14 gust 22 Light Snow 3 101.8 -23 77 -25 -35

Zoom-in to make a selection

Map of Hudson - Hudson Bay marine weather areas Arviat Airport Baker Lake Airport Chesterfield Inlet Airport Coral Harbour Airport Rankin Inlet Airport Sanikiluaq Airport Whale Cove Airport Kinngait (Cape Dorset Airport) Iqaluit Airport Wager Bay Kimmirut Airport Churchill Airport Fort Severn Airport Peawanuck Airport Moosonee Airport Eastmain Airport La Grande Rivière Airport Waskaganish Airport Wemindji Airport Akulivik Airport Inukjuak Airport Ivujivik Airport Kuujjuarapik Airport Puvirnituq Airport Umiujaq Airport Aupaluk Airport Kangiqsujuaq Airport Kangirsuk Airport Kangiqsualujjuaq Airport Kuujjuaq Airport Quaqtaq Airport Salluit Airport Tasiujaq Airport Cape Kakkiviak
Legend:
buoy Buoy
land station Land Station

Hudson - Hudson Bay Area

Another Region

What we are doing

Features

Hello Weather

Hello Weather: our upgraded telephone weather service is here. 1-833-794-3556 or 1-833-79HELLO.

Date modified: